sensor_id;sensor_type;location;lat;lon;timestamp;temperature;humidity
25320;DHT22;13256;49.012;8.610;2023-04-24T00:05:35;12.20;99.90
25320;DHT22;13256;49.012;8.610;2023-04-24T00:08:06;12.10;99.90
25320;DHT22;13256;49.012;8.610;2023-04-24T00:10:36;12.10;99.90
25320;DHT22;13256;49.012;8.610;2023-04-24T00:13:06;12.10;99.90
25320;DHT22;13256;49.012;8.610;2023-04-24T00:15:33;12.10;99.90
25320;DHT22;13256;49.012;8.610;2023-04-24T00:18:00;12.10;99.90
25320;DHT22;13256;49.012;8.610;2023-04-24T00:20:28;12.10;99.90
25320;DHT22;13256;49.012;8.610;2023-04-24T00:22:55;12.10;99.90
25320;DHT22;13256;49.012;8.610;2023-04-24T00:25:25;12.10;99.90
25320;DHT22;13256;49.012;8.610;2023-04-24T00:27:53;12.10;99.90
25320;DHT22;13256;49.012;8.610;2023-04-24T00:30:23;12.10;99.90
25320;DHT22;13256;49.012;8.610;2023-04-24T00:32:50;12.10;99.90
25320;DHT22;13256;49.012;8.610;2023-04-24T00:35:23;12.10;99.90
25320;DHT22;13256;49.012;8.610;2023-04-24T00:37:50;12.10;99.90
25320;DHT22;13256;49.012;8.610;2023-04-24T00:40:17;12.10;99.90
25320;DHT22;13256;49.012;8.610;2023-04-24T00:42:48;12.20;99.90
25320;DHT22;13256;49.012;8.610;2023-04-24T00:45:15;12.20;99.90
25320;DHT22;13256;49.012;8.610;2023-04-24T00:47:42;12.20;99.90
25320;DHT22;13256;49.012;8.610;2023-04-24T00:50:09;12.20;99.90
25320;DHT22;13256;49.012;8.610;2023-04-24T00:52:38;12.20;99.90
25320;DHT22;13256;49.012;8.610;2023-04-24T00:55:08;12.20;99.90
25320;DHT22;13256;49.012;8.610;2023-04-24T00:57:35;12.20;99.90
25320;DHT22;13256;49.012;8.610;2023-04-24T01:00:06;12.20;99.90
25320;DHT22;13256;49.012;8.610;2023-04-24T01:02:39;12.20;99.90
25320;DHT22;13256;49.012;8.610;2023-04-24T01:05:07;12.20;99.90
25320;DHT22;13256;49.012;8.610;2023-04-24T01:07:38;12.20;99.90
25320;DHT22;13256;49.012;8.610;2023-04-24T01:10:08;12.20;99.90
25320;DHT22;13256;49.012;8.610;2023-04-24T01:12:35;12.20;99.90
25320;DHT22;13256;49.012;8.610;2023-04-24T01:15:03;12.20;99.90
25320;DHT22;13256;49.012;8.610;2023-04-24T01:17:30;12.20;99.90
25320;DHT22;13256;49.012;8.610;2023-04-24T01:19:58;12.20;99.90
25320;DHT22;13256;49.012;8.610;2023-04-24T01:22:25;12.20;99.90
25320;DHT22;13256;49.012;8.610;2023-04-24T01:24:56;12.20;99.90
25320;DHT22;13256;49.012;8.610;2023-04-24T01:27:53;12.20;99.90
25320;DHT22;13256;49.012;8.610;2023-04-24T01:30:20;12.20;99.90
25320;DHT22;13256;49.012;8.610;2023-04-24T01:32:48;12.20;99.90
25320;DHT22;13256;49.012;8.610;2023-04-24T01:35:20;12.20;99.90
25320;DHT22;13256;49.012;8.610;2023-04-24T01:40:46;12.20;99.90
25320;DHT22;13256;49.012;8.610;2023-04-24T01:43:17;12.20;99.90
25320;DHT22;13256;49.012;8.610;2023-04-24T01:45:46;12.20;99.90
25320;DHT22;13256;49.012;8.610;2023-04-24T01:48:14;12.30;99.90
25320;DHT22;13256;49.012;8.610;2023-04-24T01:50:41;12.30;99.90
25320;DHT22;13256;49.012;8.610;2023-04-24T01:53:07;12.30;99.90
25320;DHT22;13256;49.012;8.610;2023-04-24T01:55:37;12.30;99.90
25320;DHT22;13256;49.012;8.610;2023-04-24T01:58:07;12.40;99.90
25320;DHT22;13256;49.012;8.610;2023-04-24T02:00:40;12.40;99.90
25320;DHT22;13256;49.012;8.610;2023-04-24T02:03:07;12.40;99.90
25320;DHT22;13256;49.012;8.610;2023-04-24T02:05:38;12.40;99.90
25320;DHT22;13256;49.012;8.610;2023-04-24T02:08:04;12.40;99.90
25320;DHT22;13256;49.012;8.610;2023-04-24T02:10:31;12.40;99.90
25320;DHT22;13256;49.012;8.610;2023-04-24T02:12:58;12.40;99.90
25320;DHT22;13256;49.012;8.610;2023-04-24T02:15:27;12.40;99.90
25320;DHT22;13256;49.012;8.610;2023-04-24T02:18:04;12.40;99.90
25320;DHT22;13256;49.012;8.610;2023-04-24T02:20:39;12.40;99.90
25320;DHT22;13256;49.012;8.610;2023-04-24T02:23:06;12.40;99.90
25320;DHT22;13256;49.012;8.610;2023-04-24T02:25:33;12.30;99.90
25320;DHT22;13256;49.012;8.610;2023-04-24T02:28:00;12.30;99.90
25320;DHT22;13256;49.012;8.610;2023-04-24T02:30:26;12.30;99.90
25320;DHT22;13256;49.012;8.610;2023-04-24T02:32:53;12.20;99.90
25320;DHT22;13256;49.012;8.610;2023-04-24T02:35:21;12.20;99.90
25320;DHT22;13256;49.012;8.610;2023-04-24T02:37:50;12.20;99.90
25320;DHT22;13256;49.012;8.610;2023-04-24T02:40:17;12.10;99.90
25320;DHT22;13256;49.012;8.610;2023-04-24T02:42:46;12.10;99.90
25320;DHT22;13256;49.012;8.610;2023-04-24T02:45:13;12.10;99.90
25320;DHT22;13256;49.012;8.610;2023-04-24T02:47:40;12.10;99.90
25320;DHT22;13256;49.012;8.610;2023-04-24T02:50:12;12.10;99.90
25320;DHT22;13256;49.012;8.610;2023-04-24T02:52:39;12.10;99.90
25320;DHT22;13256;49.012;8.610;2023-04-24T02:55:15;12.10;99.90
25320;DHT22;13256;49.012;8.610;2023-04-24T02:57:42;12.10;99.90
25320;DHT22;13256;49.012;8.610;2023-04-24T03:00:12;12.10;99.90
25320;DHT22;13256;49.012;8.610;2023-04-24T03:02:39;12.10;99.90
25320;DHT22;13256;49.012;8.610;2023-04-24T03:05:09;12.10;99.90
25320;DHT22;13256;49.012;8.610;2023-04-24T03:07:38;12.10;99.90
25320;DHT22;13256;49.012;8.610;2023-04-24T03:10:08;12.10;99.90
25320;DHT22;13256;49.012;8.610;2023-04-24T03:12:35;12.10;99.90
25320;DHT22;13256;49.012;8.610;2023-04-24T03:15:02;12.10;99.90
25320;DHT22;13256;49.012;8.610;2023-04-24T03:17:29;12.10;99.90
25320;DHT22;13256;49.012;8.610;2023-04-24T03:19:58;12.10;99.90
25320;DHT22;13256;49.012;8.610;2023-04-24T03:22:31;12.00;99.90
25320;DHT22;13256;49.012;8.610;2023-04-24T03:25:05;11.90;99.90
25320;DHT22;13256;49.012;8.610;2023-04-24T03:27:35;11.80;99.90
25320;DHT22;13256;49.012;8.610;2023-04-24T03:30:07;11.70;99.90
25320;DHT22;13256;49.012;8.610;2023-04-24T03:32:46;11.60;99.90
25320;DHT22;13256;49.012;8.610;2023-04-24T03:35:18;11.50;99.90
25320;DHT22;13256;49.012;8.610;2023-04-24T03:37:44;11.40;99.90
25320;DHT22;13256;49.012;8.610;2023-04-24T03:40:51;11.30;99.90
25320;DHT22;13256;49.012;8.610;2023-04-24T03:43:37;11.20;99.90
25320;DHT22;13256;49.012;8.610;2023-04-24T03:46:05;11.10;99.90
25320;DHT22;13256;49.012;8.610;2023-04-24T03:48:38;11.00;99.90
25320;DHT22;13256;49.012;8.610;2023-04-24T03:51:33;10.90;99.90
25320;DHT22;13256;49.012;8.610;2023-04-24T03:54:13;10.90;99.90
25320;DHT22;13256;49.012;8.610;2023-04-24T03:56:40;10.80;99.90
25320;DHT22;13256;49.012;8.610;2023-04-24T03:59:14;10.70;99.90
25320;DHT22;13256;49.012;8.610;2023-04-24T04:01:46;10.70;99.90
25320;DHT22;13256;49.012;8.610;2023-04-24T04:04:15;10.70;99.90
25320;DHT22;13256;49.012;8.610;2023-04-24T04:06:44;10.70;99.90
25320;DHT22;13256;49.012;8.610;2023-04-24T04:09:15;10.70;99.90
25320;DHT22;13256;49.012;8.610;2023-04-24T04:11:41;10.70;99.90
25320;DHT22;13256;49.012;8.610;2023-04-24T04:14:08;10.60;99.90
25320;DHT22;13256;49.012;8.610;2023-04-24T04:16:40;10.60;99.90
25320;DHT22;13256;49.012;8.610;2023-04-24T04:19:09;10.60;99.90
25320;DHT22;13256;49.012;8.610;2023-04-24T04:21:36;10.60;99.90
25320;DHT22;13256;49.012;8.610;2023-04-24T04:24:13;10.60;99.90
25320;DHT22;13256;49.012;8.610;2023-04-24T04:26:44;10.50;99.90
25320;DHT22;13256;49.012;8.610;2023-04-24T04:29:24;10.50;99.90
25320;DHT22;13256;49.012;8.610;2023-04-24T04:31:52;10.50;99.90
25320;DHT22;13256;49.012;8.610;2023-04-24T04:34:46;10.40;99.90
25320;DHT22;13256;49.012;8.610;2023-04-24T04:37:16;10.40;99.90
25320;DHT22;13256;49.012;8.610;2023-04-24T04:40:09;10.40;99.90
25320;DHT22;13256;49.012;8.610;2023-04-24T04:42:45;10.30;99.90
25320;DHT22;13256;49.012;8.610;2023-04-24T04:45:14;10.30;99.90
25320;DHT22;13256;49.012;8.610;2023-04-24T04:48:03;10.30;99.90
25320;DHT22;13256;49.012;8.610;2023-04-24T04:50:31;10.20;99.90
25320;DHT22;13256;49.012;8.610;2023-04-24T04:53:03;10.20;99.90
25320;DHT22;13256;49.012;8.610;2023-04-24T04:55:34;10.20;99.90
25320;DHT22;13256;49.012;8.610;2023-04-24T04:58:17;10.10;99.90
25320;DHT22;13256;49.012;8.610;2023-04-24T05:00:46;10.10;99.90
25320;DHT22;13256;49.012;8.610;2023-04-24T05:03:25;10.10;99.90
25320;DHT22;13256;49.012;8.610;2023-04-24T05:05:58;10.20;99.90
25320;DHT22;13256;49.012;8.610;2023-04-24T05:09:01;10.20;99.90
25320;DHT22;13256;49.012;8.610;2023-04-24T05:23:48;10.10;99.90
25320;DHT22;13256;49.012;8.610;2023-04-24T05:26:25;10.10;99.90
25320;DHT22;13256;49.012;8.610;2023-04-24T05:28:52;10.10;99.90
25320;DHT22;13256;49.012;8.610;2023-04-24T05:31:19;10.10;99.90
25320;DHT22;13256;49.012;8.610;2023-04-24T05:33:47;10.10;99.90
25320;DHT22;13256;49.012;8.610;2023-04-24T05:36:16;10.20;99.90
25320;DHT22;13256;49.012;8.610;2023-04-24T05:38:45;10.20;99.90
25320;DHT22;13256;49.012;8.610;2023-04-24T05:41:14;10.20;99.90
25320;DHT22;13256;49.012;8.610;2023-04-24T05:43:45;10.30;99.90
25320;DHT22;13256;49.012;8.610;2023-04-24T05:46:15;10.40;99.90
25320;DHT22;13256;49.012;8.610;2023-04-24T05:48:42;10.50;99.90
25320;DHT22;13256;49.012;8.610;2023-04-24T05:51:13;10.60;99.90
25320;DHT22;13256;49.012;8.610;2023-04-24T05:53:42;10.60;99.90
25320;DHT22;13256;49.012;8.610;2023-04-24T05:56:09;10.60;99.90
25320;DHT22;13256;49.012;8.610;2023-04-24T05:58:39;10.70;99.90
25320;DHT22;13256;49.012;8.610;2023-04-24T06:01:07;10.70;99.90
25320;DHT22;13256;49.012;8.610;2023-04-24T06:03:35;10.80;99.90
25320;DHT22;13256;49.012;8.610;2023-04-24T06:06:06;10.80;99.90
25320;DHT22;13256;49.012;8.610;2023-04-24T06:08:36;10.90;99.90
25320;DHT22;13256;49.012;8.610;2023-04-24T06:11:06;10.90;99.90
25320;DHT22;13256;49.012;8.610;2023-04-24T06:13:33;10.90;99.90
25320;DHT22;13256;49.012;8.610;2023-04-24T06:16:20;11.00;99.90
25320;DHT22;13256;49.012;8.610;2023-04-24T06:18:55;11.00;99.90
25320;DHT22;13256;49.012;8.610;2023-04-24T06:21:22;11.00;99.90
25320;DHT22;13256;49.012;8.610;2023-04-24T06:24:18;11.00;99.90
25320;DHT22;13256;49.012;8.610;2023-04-24T06:26:45;11.00;99.90
25320;DHT22;13256;49.012;8.610;2023-04-24T06:29:15;11.00;99.90
25320;DHT22;13256;49.012;8.610;2023-04-24T06:31:42;11.00;99.90
25320;DHT22;13256;49.012;8.610;2023-04-24T06:34:12;11.10;99.90
25320;DHT22;13256;49.012;8.610;2023-04-24T06:36:43;11.10;99.90
25320;DHT22;13256;49.012;8.610;2023-04-24T06:39:12;11.20;99.90
25320;DHT22;13256;49.012;8.610;2023-04-24T06:42:04;11.20;99.90
25320;DHT22;13256;49.012;8.610;2023-04-24T06:44:34;11.20;99.90
25320;DHT22;13256;49.012;8.610;2023-04-24T06:47:04;11.20;99.90
25320;DHT22;13256;49.012;8.610;2023-04-24T06:49:58;11.20;99.90
25320;DHT22;13256;49.012;8.610;2023-04-24T06:52:25;11.20;99.90
25320;DHT22;13256;49.012;8.610;2023-04-24T06:54:52;11.20;99.90
25320;DHT22;13256;49.012;8.610;2023-04-24T06:57:24;11.30;99.90
25320;DHT22;13256;49.012;8.610;2023-04-24T06:59:53;11.30;99.90
25320;DHT22;13256;49.012;8.610;2023-04-24T07:02:19;11.40;99.90
25320;DHT22;13256;49.012;8.610;2023-04-24T07:04:46;11.40;99.90
25320;DHT22;13256;49.012;8.610;2023-04-24T07:07:14;11.50;99.90
25320;DHT22;13256;49.012;8.610;2023-04-24T07:09:41;11.50;99.90
25320;DHT22;13256;49.012;8.610;2023-04-24T07:12:09;11.50;99.90
25320;DHT22;13256;49.012;8.610;2023-04-24T07:14:39;11.60;99.90
25320;DHT22;13256;49.012;8.610;2023-04-24T07:17:06;11.60;99.90
25320;DHT22;13256;49.012;8.610;2023-04-24T07:19:33;11.70;99.90
25320;DHT22;13256;49.012;8.610;2023-04-24T07:22:10;11.70;99.90
25320;DHT22;13256;49.012;8.610;2023-04-24T07:24:46;11.70;99.90
25320;DHT22;13256;49.012;8.610;2023-04-24T07:27:12;11.80;99.90
25320;DHT22;13256;49.012;8.610;2023-04-24T07:29:41;11.80;99.90
25320;DHT22;13256;49.012;8.610;2023-04-24T07:32:35;11.80;99.90
25320;DHT22;13256;49.012;8.610;2023-04-24T07:35:04;11.90;99.90
25320;DHT22;13256;49.012;8.610;2023-04-24T07:37:36;11.90;99.90
25320;DHT22;13256;49.012;8.610;2023-04-24T07:40:09;11.90;99.90
25320;DHT22;13256;49.012;8.610;2023-04-24T07:42:35;11.90;99.90
25320;DHT22;13256;49.012;8.610;2023-04-24T07:45:06;11.80;99.90
25320;DHT22;13256;49.012;8.610;2023-04-24T07:47:41;11.70;99.90
25320;DHT22;13256;49.012;8.610;2023-04-24T07:50:11;11.70;99.90
25320;DHT22;13256;49.012;8.610;2023-04-24T07:52:38;11.80;99.90
25320;DHT22;13256;49.012;8.610;2023-04-24T07:55:07;12.00;99.90
25320;DHT22;13256;49.012;8.610;2023-04-24T07:57:37;12.10;99.90
25320;DHT22;13256;49.012;8.610;2023-04-24T08:00:05;12.20;99.90
25320;DHT22;13256;49.012;8.610;2023-04-24T08:02:37;12.20;99.90
25320;DHT22;13256;49.012;8.610;2023-04-24T08:05:07;12.10;99.90
25320;DHT22;13256;49.012;8.610;2023-04-24T08:07:34;12.00;99.90
25320;DHT22;13256;49.012;8.610;2023-04-24T08:10:04;11.90;99.90
25320;DHT22;13256;49.012;8.610;2023-04-24T08:12:35;11.90;99.90
25320;DHT22;13256;49.012;8.610;2023-04-24T08:15:01;11.80;99.90
25320;DHT22;13256;49.012;8.610;2023-04-24T08:17:32;11.80;99.90
25320;DHT22;13256;49.012;8.610;2023-04-24T08:19:59;11.70;99.90
25320;DHT22;13256;49.012;8.610;2023-04-24T08:22:28;11.60;99.90
25320;DHT22;13256;49.012;8.610;2023-04-24T08:24:55;11.50;99.90
25320;DHT22;13256;49.012;8.610;2023-04-24T08:27:27;11.60;99.90
25320;DHT22;13256;49.012;8.610;2023-04-24T08:29:54;11.70;99.90
25320;DHT22;13256;49.012;8.610;2023-04-24T08:32:22;11.70;99.90
25320;DHT22;13256;49.012;8.610;2023-04-24T08:34:53;12.00;99.90
25320;DHT22;13256;49.012;8.610;2023-04-24T08:37:26;12.10;99.90
25320;DHT22;13256;49.012;8.610;2023-04-24T08:39:55;12.10;99.90
25320;DHT22;13256;49.012;8.610;2023-04-24T08:42:24;12.10;99.90
25320;DHT22;13256;49.012;8.610;2023-04-24T08:44:54;11.80;99.90
25320;DHT22;13256;49.012;8.610;2023-04-24T08:47:22;11.50;99.90
25320;DHT22;13256;49.012;8.610;2023-04-24T08:49:52;11.20;99.90
25320;DHT22;13256;49.012;8.610;2023-04-24T08:52:22;11.10;99.90
25320;DHT22;13256;49.012;8.610;2023-04-24T08:54:49;11.10;99.90
25320;DHT22;13256;49.012;8.610;2023-04-24T08:57:23;11.10;99.90
25320;DHT22;13256;49.012;8.610;2023-04-24T08:59:51;11.00;99.90
25320;DHT22;13256;49.012;8.610;2023-04-24T09:02:21;10.90;99.90
25320;DHT22;13256;49.012;8.610;2023-04-24T09:04:49;11.00;99.90
25320;DHT22;13256;49.012;8.610;2023-04-24T09:07:16;11.10;99.90
25320;DHT22;13256;49.012;8.610;2023-04-24T09:09:46;11.20;99.90
25320;DHT22;13256;49.012;8.610;2023-04-24T09:12:17;11.50;99.90
25320;DHT22;13256;49.012;8.610;2023-04-24T09:14:45;11.70;99.90
25320;DHT22;13256;49.012;8.610;2023-04-24T09:17:15;12.10;99.90
25320;DHT22;13256;49.012;8.610;2023-04-24T09:19:52;12.60;99.90
25320;DHT22;13256;49.012;8.610;2023-04-24T09:22:21;13.10;99.90
25320;DHT22;13256;49.012;8.610;2023-04-24T09:25:03;13.00;99.90
25320;DHT22;13256;49.012;8.610;2023-04-24T09:27:32;13.00;99.90
25320;DHT22;13256;49.012;8.610;2023-04-24T09:30:01;12.90;99.90
25320;DHT22;13256;49.012;8.610;2023-04-24T09:32:29;12.90;99.90
25320;DHT22;13256;49.012;8.610;2023-04-24T09:35:15;12.60;99.90
25320;DHT22;13256;49.012;8.610;2023-04-24T09:37:47;12.40;99.90
25320;DHT22;13256;49.012;8.610;2023-04-24T09:40:17;12.30;99.90
25320;DHT22;13256;49.012;8.610;2023-04-24T09:42:55;12.20;99.90
25320;DHT22;13256;49.012;8.610;2023-04-24T09:45:28;12.20;99.90
25320;DHT22;13256;49.012;8.610;2023-04-24T09:48:07;12.20;99.90
25320;DHT22;13256;49.012;8.610;2023-04-24T09:50:38;12.20;99.90
25320;DHT22;13256;49.012;8.610;2023-04-24T09:53:05;12.10;99.90
25320;DHT22;13256;49.012;8.610;2023-04-24T09:55:45;12.00;99.90
25320;DHT22;13256;49.012;8.610;2023-04-24T09:58:14;12.10;99.90
25320;DHT22;13256;49.012;8.610;2023-04-24T10:00:41;12.20;99.90
25320;DHT22;13256;49.012;8.610;2023-04-24T10:03:08;12.20;99.90
25320;DHT22;13256;49.012;8.610;2023-04-24T10:05:37;12.00;99.90
25320;DHT22;13256;49.012;8.610;2023-04-24T10:08:10;12.10;99.90
25320;DHT22;13256;49.012;8.610;2023-04-24T10:10:41;12.20;99.90
25320;DHT22;13256;49.012;8.610;2023-04-24T10:13:38;12.40;99.90
25320;DHT22;13256;49.012;8.610;2023-04-24T10:16:11;12.60;99.90
25320;DHT22;13256;49.012;8.610;2023-04-24T10:18:39;12.60;99.90
25320;DHT22;13256;49.012;8.610;2023-04-24T10:21:06;12.80;99.90
25320;DHT22;13256;49.012;8.610;2023-04-24T10:23:36;12.90;99.90
25320;DHT22;13256;49.012;8.610;2023-04-24T10:26:03;13.10;99.90
25320;DHT22;13256;49.012;8.610;2023-04-24T10:28:32;13.10;99.90
25320;DHT22;13256;49.012;8.610;2023-04-24T10:31:03;13.10;99.90
25320;DHT22;13256;49.012;8.610;2023-04-24T10:33:31;12.90;99.90
25320;DHT22;13256;49.012;8.610;2023-04-24T10:36:02;12.80;99.90
25320;DHT22;13256;49.012;8.610;2023-04-24T10:38:33;12.70;99.90
25320;DHT22;13256;49.012;8.610;2023-04-24T10:41:12;12.50;99.90
25320;DHT22;13256;49.012;8.610;2023-04-24T10:43:46;12.40;99.90
25320;DHT22;13256;49.012;8.610;2023-04-24T10:46:28;12.30;99.90
25320;DHT22;13256;49.012;8.610;2023-04-24T10:48:57;12.30;99.90
25320;DHT22;13256;49.012;8.610;2023-04-24T10:51:49;12.20;99.90
25320;DHT22;13256;49.012;8.610;2023-04-24T10:54:46;12.00;99.90
25320;DHT22;13256;49.012;8.610;2023-04-24T10:59:51;12.00;99.90
25320;DHT22;13256;49.012;8.610;2023-04-24T11:02:18;12.10;99.90
25320;DHT22;13256;49.012;8.610;2023-04-24T11:04:51;12.20;99.90
25320;DHT22;13256;49.012;8.610;2023-04-24T11:07:20;12.30;99.90
25320;DHT22;13256;49.012;8.610;2023-04-24T11:10:01;12.40;99.90
25320;DHT22;13256;49.012;8.610;2023-04-24T11:12:35;12.50;99.90
25320;DHT22;13256;49.012;8.610;2023-04-24T11:15:10;12.40;99.90
25320;DHT22;13256;49.012;8.610;2023-04-24T11:17:42;12.30;99.90
25320;DHT22;13256;49.012;8.610;2023-04-24T11:20:10;12.20;99.90
25320;DHT22;13256;49.012;8.610;2023-04-24T11:22:55;12.10;99.90
25320;DHT22;13256;49.012;8.610;2023-04-24T11:25:23;12.00;99.90
25320;DHT22;13256;49.012;8.610;2023-04-24T11:28:05;12.00;99.90
25320;DHT22;13256;49.012;8.610;2023-04-24T11:30:34;11.90;99.90
25320;DHT22;13256;49.012;8.610;2023-04-24T11:33:09;11.90;99.90
25320;DHT22;13256;49.012;8.610;2023-04-24T11:35:41;11.90;99.90
25320;DHT22;13256;49.012;8.610;2023-04-24T11:38:11;12.00;99.90
25320;DHT22;13256;49.012;8.610;2023-04-24T11:40:52;12.00;99.90
25320;DHT22;13256;49.012;8.610;2023-04-24T11:43:26;12.10;99.90
25320;DHT22;13256;49.012;8.610;2023-04-24T11:45:59;12.20;99.90
25320;DHT22;13256;49.012;8.610;2023-04-24T11:48:34;12.30;99.90
25320;DHT22;13256;49.012;8.610;2023-04-24T11:51:02;12.40;99.90
25320;DHT22;13256;49.012;8.610;2023-04-24T11:53:56;12.50;99.90
25320;DHT22;13256;49.012;8.610;2023-04-24T11:56:33;12.50;99.90
25320;DHT22;13256;49.012;8.610;2023-04-24T11:59:04;12.40;99.90
25320;DHT22;13256;49.012;8.610;2023-04-24T12:01:43;12.10;99.90
25320;DHT22;13256;49.012;8.610;2023-04-24T12:04:13;11.80;99.90
25320;DHT22;13256;49.012;8.610;2023-04-24T12:06:40;11.50;99.90
25320;DHT22;13256;49.012;8.610;2023-04-24T12:09:50;11.30;99.90
25320;DHT22;13256;49.012;8.610;2023-04-24T12:12:23;11.10;99.90
25320;DHT22;13256;49.012;8.610;2023-04-24T12:14:56;11.10;99.90
25320;DHT22;13256;49.012;8.610;2023-04-24T12:17:34;11.30;99.90
25320;DHT22;13256;49.012;8.610;2023-04-24T12:20:08;11.40;99.90
25320;DHT22;13256;49.012;8.610;2023-04-24T12:22:52;11.60;99.90
25320;DHT22;13256;49.012;8.610;2023-04-24T12:25:23;11.90;99.90
25320;DHT22;13256;49.012;8.610;2023-04-24T12:28:14;12.20;99.90
25320;DHT22;13256;49.012;8.610;2023-04-24T12:30:53;12.50;99.90
25320;DHT22;13256;49.012;8.610;2023-04-24T12:33:21;12.50;99.90
25320;DHT22;13256;49.012;8.610;2023-04-24T12:35:51;12.50;99.90
25320;DHT22;13256;49.012;8.610;2023-04-24T12:38:26;12.40;99.90
25320;DHT22;13256;49.012;8.610;2023-04-24T12:41:04;12.50;99.90
25320;DHT22;13256;49.012;8.610;2023-04-24T12:43:34;12.50;99.90
25320;DHT22;13256;49.012;8.610;2023-04-24T12:46:01;12.40;99.90
25320;DHT22;13256;49.012;8.610;2023-04-24T12:48:34;12.30;99.90
25320;DHT22;13256;49.012;8.610;2023-04-24T13:05:43;12.80;99.90
25320;DHT22;13256;49.012;8.610;2023-04-24T13:08:14;13.10;99.90
25320;DHT22;13256;49.012;8.610;2023-04-24T13:10:41;13.30;99.90
25320;DHT22;13256;49.012;8.610;2023-04-24T13:13:08;13.30;99.90
25320;DHT22;13256;49.012;8.610;2023-04-24T13:15:36;13.50;99.90
25320;DHT22;13256;49.012;8.610;2023-04-24T13:18:03;13.50;99.90
25320;DHT22;13256;49.012;8.610;2023-04-24T13:20:32;13.30;99.90
25320;DHT22;13256;49.012;8.610;2023-04-24T13:23:04;13.10;99.90
25320;DHT22;13256;49.012;8.610;2023-04-24T13:25:35;13.00;99.90
25320;DHT22;13256;49.012;8.610;2023-04-24T13:28:02;12.80;99.90
25320;DHT22;13256;49.012;8.610;2023-04-24T13:30:32;12.80;99.90
25320;DHT22;13256;49.012;8.610;2023-04-24T13:33:01;12.80;99.90
25320;DHT22;13256;49.012;8.610;2023-04-24T13:35:28;12.80;99.90
25320;DHT22;13256;49.012;8.610;2023-04-24T13:37:54;12.90;99.90
25320;DHT22;13256;49.012;8.610;2023-04-24T13:40:21;12.80;99.90
25320;DHT22;13256;49.012;8.610;2023-04-24T13:42:48;12.90;99.90
25320;DHT22;13256;49.012;8.610;2023-04-24T13:45:15;13.00;99.90
25320;DHT22;13256;49.012;8.610;2023-04-24T13:47:55;13.30;99.90
25320;DHT22;13256;49.012;8.610;2023-04-24T13:50:52;13.60;99.90
25320;DHT22;13256;49.012;8.610;2023-04-24T13:53:19;13.60;99.90
25320;DHT22;13256;49.012;8.610;2023-04-24T13:55:51;13.50;99.90
25320;DHT22;13256;49.012;8.610;2023-04-24T13:58:18;13.40;99.90
25320;DHT22;13256;49.012;8.610;2023-04-24T14:00:45;13.40;99.90
25320;DHT22;13256;49.012;8.610;2023-04-24T14:03:15;13.40;99.90
25320;DHT22;13256;49.012;8.610;2023-04-24T14:05:43;13.40;99.90
25320;DHT22;13256;49.012;8.610;2023-04-24T14:08:10;13.50;99.90
25320;DHT22;13256;49.012;8.610;2023-04-24T14:10:37;13.40;99.90
25320;DHT22;13256;49.012;8.610;2023-04-24T14:13:08;13.30;99.90
25320;DHT22;13256;49.012;8.610;2023-04-24T14:15:36;13.40;99.90
25320;DHT22;13256;49.012;8.610;2023-04-24T14:18:05;13.30;99.90
25320;DHT22;13256;49.012;8.610;2023-04-24T14:20:32;13.20;99.90
25320;DHT22;13256;49.012;8.610;2023-04-24T14:22:59;13.20;99.90
25320;DHT22;13256;49.012;8.610;2023-04-24T14:25:26;13.30;99.90
25320;DHT22;13256;49.012;8.610;2023-04-24T14:27:53;13.30;99.90
25320;DHT22;13256;49.012;8.610;2023-04-24T14:30:24;13.40;99.90
25320;DHT22;13256;49.012;8.610;2023-04-24T14:32:54;13.30;99.90
25320;DHT22;13256;49.012;8.610;2023-04-24T14:35:24;13.20;99.90
25320;DHT22;13256;49.012;8.610;2023-04-24T14:37:51;13.10;99.90
25320;DHT22;13256;49.012;8.610;2023-04-24T14:40:21;13.00;99.90
25320;DHT22;13256;49.012;8.610;2023-04-24T14:43:11;12.80;99.90
25320;DHT22;13256;49.012;8.610;2023-04-24T14:45:41;12.70;99.90
25320;DHT22;13256;49.012;8.610;2023-04-24T14:48:08;12.80;99.90
25320;DHT22;13256;49.012;8.610;2023-04-24T14:50:35;13.20;99.90
25320;DHT22;13256;49.012;8.610;2023-04-24T14:53:02;13.50;99.90
25320;DHT22;13256;49.012;8.610;2023-04-24T14:55:31;13.80;99.90
25320;DHT22;13256;49.012;8.610;2023-04-24T14:58:03;13.90;99.90
25320;DHT22;13256;49.012;8.610;2023-04-24T15:00:30;13.90;99.90
25320;DHT22;13256;49.012;8.610;2023-04-24T15:03:00;13.90;99.90
25320;DHT22;13256;49.012;8.610;2023-04-24T15:05:28;13.80;99.90
25320;DHT22;13256;49.012;8.610;2023-04-24T15:08:20;13.70;99.90
25320;DHT22;13256;49.012;8.610;2023-04-24T15:10:48;13.60;99.90
25320;DHT22;13256;49.012;8.610;2023-04-24T15:13:16;13.50;99.90
25320;DHT22;13256;49.012;8.610;2023-04-24T15:15:48;13.40;99.90
25320;DHT22;13256;49.012;8.610;2023-04-24T15:18:15;13.50;99.90
25320;DHT22;13256;49.012;8.610;2023-04-24T15:20:45;13.40;99.90
25320;DHT22;13256;49.012;8.610;2023-04-24T15:23:12;13.30;99.90
25320;DHT22;13256;49.012;8.610;2023-04-24T15:25:39;13.20;99.90
25320;DHT22;13256;49.012;8.610;2023-04-24T15:28:06;13.20;99.90
25320;DHT22;13256;49.012;8.610;2023-04-24T15:30:34;13.30;99.90
25320;DHT22;13256;49.012;8.610;2023-04-24T15:33:04;13.40;99.90
25320;DHT22;13256;49.012;8.610;2023-04-24T15:35:55;13.40;99.90
25320;DHT22;13256;49.012;8.610;2023-04-24T15:38:23;13.40;99.90
25320;DHT22;13256;49.012;8.610;2023-04-24T15:40:56;13.20;99.90
25320;DHT22;13256;49.012;8.610;2023-04-24T15:43:24;13.10;99.90
25320;DHT22;13256;49.012;8.610;2023-04-24T15:45:51;13.00;99.90
25320;DHT22;13256;49.012;8.610;2023-04-24T15:48:21;12.90;99.90
25320;DHT22;13256;49.012;8.610;2023-04-24T15:50:51;12.80;99.90
25320;DHT22;13256;49.012;8.610;2023-04-24T15:53:22;12.70;99.90
25320;DHT22;13256;49.012;8.610;2023-04-24T15:55:49;12.80;99.90
25320;DHT22;13256;49.012;8.610;2023-04-24T15:58:19;12.70;99.90
25320;DHT22;13256;49.012;8.610;2023-04-24T16:00:46;12.80;99.90
25320;DHT22;13256;49.012;8.610;2023-04-24T16:03:14;12.70;99.90
25320;DHT22;13256;49.012;8.610;2023-04-24T16:05:41;12.70;99.90
25320;DHT22;13256;49.012;8.610;2023-04-24T16:08:14;12.70;99.90
25320;DHT22;13256;49.012;8.610;2023-04-24T16:10:45;12.70;99.90
25320;DHT22;13256;49.012;8.610;2023-04-24T16:13:15;12.60;99.90
25320;DHT22;13256;49.012;8.610;2023-04-24T16:15:44;12.50;99.90
25320;DHT22;13256;49.012;8.610;2023-04-24T16:18:12;12.50;99.90
25320;DHT22;13256;49.012;8.610;2023-04-24T16:20:41;12.50;99.90
25320;DHT22;13256;49.012;8.610;2023-04-24T16:23:08;12.50;99.90
25320;DHT22;13256;49.012;8.610;2023-04-24T16:25:38;12.50;99.90
25320;DHT22;13256;49.012;8.610;2023-04-24T16:28:10;12.60;99.90
25320;DHT22;13256;49.012;8.610;2023-04-24T16:30:37;12.70;99.90
25320;DHT22;13256;49.012;8.610;2023-04-24T16:33:06;12.80;99.90